sensor_id;sensor_type;location;lat;lon;timestamp;P1;durP1;ratioP1;P2;durP2;ratioP2
2892;SDS011;1456;51.840;12.184;2023-04-03T12:53:48;23.37;;;22.87;;
2892;SDS011;1456;51.840;12.184;2023-04-03T12:59:12;24.90;;;24.30;;
2892;SDS011;1456;51.840;12.184;2023-04-03T13:02:00;22.93;;;22.43;;
2892;SDS011;1456;51.840;12.184;2023-04-03T13:04:28;23.60;;;23.10;;
2892;SDS011;1456;51.840;12.184;2023-04-03T13:06:56;21.87;;;21.33;;
2892;SDS011;1456;51.840;12.184;2023-04-03T13:09:25;23.07;;;22.57;;
2892;SDS011;1456;51.840;12.184;2023-04-03T13:11:57;20.43;;;20.03;;
2892;SDS011;1456;51.840;12.184;2023-04-03T13:14:26;19.20;;;18.80;;
2892;SDS011;1456;51.840;12.184;2023-04-03T13:19:22;20.87;;;20.37;;
2892;SDS011;1456;51.840;12.184;2023-04-03T13:21:49;18.60;;;18.20;;
2892;SDS011;1456;51.840;12.184;2023-04-03T13:24:39;19.37;;;18.97;;
2892;SDS011;1456;51.840;12.184;2023-04-03T13:27:05;19.67;;;19.27;;
2892;SDS011;1456;51.840;12.184;2023-04-03T13:29:32;17.10;;;16.80;;
2892;SDS011;1456;51.840;12.184;2023-04-03T13:32:00;13.00;;;12.70;;
2892;SDS011;1456;51.840;12.184;2023-04-03T13:34:28;18.60;;;18.20;;
2892;SDS011;1456;51.840;12.184;2023-04-03T13:37:01;20.57;;;19.83;;
2892;SDS011;1456;51.840;12.184;2023-04-03T13:39:33;20.50;;;20.10;;
2892;SDS011;1456;51.840;12.184;2023-04-03T13:42:02;19.33;;;18.93;;
2892;SDS011;1456;51.840;12.184;2023-04-03T13:44:42;19.80;;;19.40;;
2892;SDS011;1456;51.840;12.184;2023-04-03T13:50:12;24.43;;;23.00;;
2892;SDS011;1456;51.840;12.184;2023-04-03T13:52:45;21.30;;;20.73;;
2892;SDS011;1456;51.840;12.184;2023-04-03T13:57:52;20.10;;;19.50;;
2892;SDS011;1456;51.840;12.184;2023-04-03T14:06:10;19.60;;;19.20;;
2892;SDS011;1456;51.840;12.184;2023-04-03T14:08:37;19.27;;;18.87;;
2892;SDS011;1456;51.840;12.184;2023-04-03T14:11:03;17.73;;;17.43;;
2892;SDS011;1456;51.840;12.184;2023-04-03T14:13:29;10.37;;;10.27;;
2892;SDS011;1456;51.840;12.184;2023-04-03T14:15:56;10.53;;;10.43;;
2892;SDS011;1456;51.840;12.184;2023-04-03T14:18:22;10.23;;;10.13;;
2892;SDS011;1456;51.840;12.184;2023-04-03T14:20:48;10.53;;;10.33;;
2892;SDS011;1456;51.840;12.184;2023-04-03T14:23:14;10.10;;;10.00;;
2892;SDS011;1456;51.840;12.184;2023-04-03T14:25:41;9.80;;;9.70;;
2892;SDS011;1456;51.840;12.184;2023-04-03T14:28:15;12.33;;;12.07;;
2892;SDS011;1456;51.840;12.184;2023-04-03T14:30:43;9.37;;;9.27;;
2892;SDS011;1456;51.840;12.184;2023-04-03T14:33:14;11.40;;;11.00;;
2892;SDS011;1456;51.840;12.184;2023-04-03T14:35:41;11.83;;;11.53;;
2892;SDS011;1456;51.840;12.184;2023-04-03T14:38:28;12.50;;;12.10;;
2892;SDS011;1456;51.840;12.184;2023-04-03T14:40:56;12.10;;;11.80;;
2892;SDS011;1456;51.840;12.184;2023-04-03T14:43:23;11.53;;;11.30;;
2892;SDS011;1456;51.840;12.184;2023-04-03T14:45:49;12.63;;;12.00;;
2892;SDS011;1456;51.840;12.184;2023-04-03T14:48:17;12.37;;;12.07;;
2892;SDS011;1456;51.840;12.184;2023-04-03T14:50:45;24.80;;;23.50;;
2892;SDS011;1456;51.840;12.184;2023-04-03T14:53:12;21.53;;;20.63;;
2892;SDS011;1456;51.840;12.184;2023-04-03T14:55:40;18.90;;;18.30;;
2892;SDS011;1456;51.840;12.184;2023-04-03T14:58:14;20.67;;;19.13;;
2892;SDS011;1456;51.840;12.184;2023-04-03T15:00:43;19.80;;;18.60;;
2892;SDS011;1456;51.840;12.184;2023-04-03T15:03:13;17.60;;;17.20;;
2892;SDS011;1456;51.840;12.184;2023-04-03T15:05:44;26.73;;;25.17;;
2892;SDS011;1456;51.840;12.184;2023-04-03T15:08:21;21.13;;;20.50;;
2892;SDS011;1456;51.840;12.184;2023-04-03T15:10:50;21.13;;;20.20;;
2892;SDS011;1456;51.840;12.184;2023-04-03T15:13:17;18.87;;;18.20;;
2892;SDS011;1456;51.840;12.184;2023-04-03T15:15:44;12.17;;;11.87;;
2892;SDS011;1456;51.840;12.184;2023-04-03T15:18:11;13.40;;;12.60;;
2892;SDS011;1456;51.840;12.184;2023-04-03T15:20:41;10.30;;;10.20;;
2892;SDS011;1456;51.840;12.184;2023-04-03T15:23:08;11.53;;;11.23;;
2892;SDS011;1456;51.840;12.184;2023-04-03T15:25:37;15.60;;;15.00;;
2892;SDS011;1456;51.840;12.184;2023-04-03T15:28:04;13.70;;;13.30;;
2892;SDS011;1456;51.840;12.184;2023-04-03T15:30:31;12.87;;;12.37;;
2892;SDS011;1456;51.840;12.184;2023-04-03T15:32:57;13.37;;;12.87;;
2892;SDS011;1456;51.840;12.184;2023-04-03T15:35:22;21.17;;;19.67;;
2892;SDS011;1456;51.840;12.184;2023-04-03T15:37:49;16.17;;;14.57;;
2892;SDS011;1456;51.840;12.184;2023-04-03T15:40:16;12.37;;;12.13;;
2892;SDS011;1456;51.840;12.184;2023-04-03T15:42:41;12.00;;;11.80;;
2892;SDS011;1456;51.840;12.184;2023-04-03T15:45:08;20.97;;;20.40;;
2892;SDS011;1456;51.840;12.184;2023-04-03T15:47:35;39.10;;;35.87;;
2892;SDS011;1456;51.840;12.184;2023-04-03T15:50:01;26.37;;;25.33;;
2892;SDS011;1456;51.840;12.184;2023-04-03T15:52:27;25.27;;;24.07;;
2892;SDS011;1456;51.840;12.184;2023-04-03T15:54:52;20.90;;;20.40;;
2892;SDS011;1456;51.840;12.184;2023-04-03T15:57:18;19.17;;;18.67;;
2892;SDS011;1456;51.840;12.184;2023-04-03T15:59:45;26.20;;;24.43;;
2892;SDS011;1456;51.840;12.184;2023-04-03T16:02:11;20.13;;;18.60;;
2892;SDS011;1456;51.840;12.184;2023-04-03T16:04:39;15.77;;;15.27;;
2892;SDS011;1456;51.840;12.184;2023-04-03T16:07:05;12.57;;;12.17;;
2892;SDS011;1456;51.840;12.184;2023-04-03T16:09:34;15.53;;;14.83;;
2892;SDS011;1456;51.840;12.184;2023-04-03T16:12:00;19.00;;;17.20;;
2892;SDS011;1456;51.840;12.184;2023-04-03T16:14:27;12.50;;;11.90;;
2892;SDS011;1456;51.840;12.184;2023-04-03T16:16:55;20.03;;;18.63;;
2892;SDS011;1456;51.840;12.184;2023-04-03T16:19:21;13.00;;;12.70;;
2892;SDS011;1456;51.840;12.184;2023-04-03T16:21:47;16.47;;;15.63;;
2892;SDS011;1456;51.840;12.184;2023-04-03T16:24:13;10.30;;;10.20;;
2892;SDS011;1456;51.840;12.184;2023-04-03T16:26:39;10.47;;;10.20;;
2892;SDS011;1456;51.840;12.184;2023-04-03T16:29:05;13.10;;;12.70;;
2892;SDS011;1456;51.840;12.184;2023-04-03T16:31:31;9.70;;;9.60;;
2892;SDS011;1456;51.840;12.184;2023-04-03T16:33:58;10.93;;;10.73;;
2892;SDS011;1456;51.840;12.184;2023-04-03T16:36:25;31.87;;;12.10;;
2892;SDS011;1456;51.840;12.184;2023-04-03T16:38:50;11.10;;;10.93;;
2892;SDS011;1456;51.840;12.184;2023-04-03T16:41:16;9.20;;;9.10;;
2892;SDS011;1456;51.840;12.184;2023-04-03T16:43:42;9.97;;;9.87;;
2892;SDS011;1456;51.840;12.184;2023-04-03T16:46:08;10.20;;;10.10;;
2892;SDS011;1456;51.840;12.184;2023-04-03T16:48:33;10.03;;;9.90;;
2892;SDS011;1456;51.840;12.184;2023-04-03T16:50:59;11.33;;;11.03;;
2892;SDS011;1456;51.840;12.184;2023-04-03T16:53:26;12.57;;;12.20;;
2892;SDS011;1456;51.840;12.184;2023-04-03T16:55:53;10.37;;;10.27;;
2892;SDS011;1456;51.840;12.184;2023-04-03T16:58:19;9.80;;;9.70;;
2892;SDS011;1456;51.840;12.184;2023-04-03T17:00:45;12.33;;;11.80;;
2892;SDS011;1456;51.840;12.184;2023-04-03T17:03:12;10.03;;;9.87;;
2892;SDS011;1456;51.840;12.184;2023-04-03T17:05:37;12.00;;;10.93;;
2892;SDS011;1456;51.840;12.184;2023-04-03T17:08:03;11.33;;;11.13;;
2892;SDS011;1456;51.840;12.184;2023-04-03T17:10:29;9.80;;;9.70;;
2892;SDS011;1456;51.840;12.184;2023-04-03T17:12:55;10.90;;;10.70;;
2892;SDS011;1456;51.840;12.184;2023-04-03T17:15:21;9.50;;;9.40;;
2892;SDS011;1456;51.840;12.184;2023-04-03T17:17:48;9.80;;;9.60;;
2892;SDS011;1456;51.840;12.184;2023-04-03T17:20:16;9.90;;;9.80;;
2892;SDS011;1456;51.840;12.184;2023-04-03T17:22:41;12.03;;;11.27;;
2892;SDS011;1456;51.840;12.184;2023-04-03T17:25:07;11.43;;;11.23;;
2892;SDS011;1456;51.840;12.184;2023-04-03T17:27:34;12.33;;;12.03;;
2892;SDS011;1456;51.840;12.184;2023-04-03T17:30:00;15.17;;;10.80;;
2892;SDS011;1456;51.840;12.184;2023-04-03T17:32:27;9.60;;;9.50;;
2892;SDS011;1456;51.840;12.184;2023-04-03T17:34:52;10.83;;;10.63;;
2892;SDS011;1456;51.840;12.184;2023-04-03T17:37:18;11.30;;;11.10;;
2892;SDS011;1456;51.840;12.184;2023-04-03T17:39:43;10.80;;;10.70;;
2892;SDS011;1456;51.840;12.184;2023-04-03T17:42:11;10.00;;;9.90;;
2892;SDS011;1456;51.840;12.184;2023-04-03T17:44:37;10.90;;;10.80;;
2892;SDS011;1456;51.840;12.184;2023-04-03T17:47:02;10.90;;;10.80;;
2892;SDS011;1456;51.840;12.184;2023-04-03T17:49:28;11.33;;;10.90;;
2892;SDS011;1456;51.840;12.184;2023-04-03T17:51:54;11.07;;;10.97;;
2892;SDS011;1456;51.840;12.184;2023-04-03T17:54:20;11.30;;;11.00;;
2892;SDS011;1456;51.840;12.184;2023-04-03T17:56:45;9.20;;;9.10;;
2892;SDS011;1456;51.840;12.184;2023-04-03T17:59:13;13.37;;;12.00;;
2892;SDS011;1456;51.840;12.184;2023-04-03T18:01:41;9.40;;;9.30;;
2892;SDS011;1456;51.840;12.184;2023-04-03T18:04:08;9.77;;;9.67;;
2892;SDS011;1456;51.840;12.184;2023-04-03T18:06:45;10.00;;;9.90;;
2892;SDS011;1456;51.840;12.184;2023-04-03T18:09:16;10.83;;;10.73;;
2892;SDS011;1456;51.840;12.184;2023-04-03T18:11:45;10.10;;;10.00;;
2892;SDS011;1456;51.840;12.184;2023-04-03T18:14:12;10.77;;;10.67;;
2892;SDS011;1456;51.840;12.184;2023-04-03T18:16:40;10.40;;;10.30;;
2892;SDS011;1456;51.840;12.184;2023-04-03T18:19:06;10.90;;;10.80;;
2892;SDS011;1456;51.840;12.184;2023-04-03T18:21:33;9.80;;;9.70;;
2892;SDS011;1456;51.840;12.184;2023-04-03T18:24:00;10.63;;;10.53;;
2892;SDS011;1456;51.840;12.184;2023-04-03T18:26:27;11.23;;;11.07;;
2892;SDS011;1456;51.840;12.184;2023-04-03T18:28:55;10.70;;;10.60;;
2892;SDS011;1456;51.840;12.184;2023-04-03T18:31:23;10.53;;;10.40;;
2892;SDS011;1456;51.840;12.184;2023-04-03T18:33:50;11.73;;;11.53;;
2892;SDS011;1456;51.840;12.184;2023-04-03T18:36:18;10.80;;;10.70;;
2892;SDS011;1456;51.840;12.184;2023-04-03T18:38:45;10.60;;;10.50;;
2892;SDS011;1456;51.840;12.184;2023-04-03T18:41:10;11.83;;;11.63;;
2892;SDS011;1456;51.840;12.184;2023-04-03T18:43:36;11.37;;;11.20;;
2892;SDS011;1456;51.840;12.184;2023-04-03T18:46:03;10.07;;;9.97;;
2892;SDS011;1456;51.840;12.184;2023-04-03T18:48:32;12.60;;;12.00;;
2892;SDS011;1456;51.840;12.184;2023-04-03T18:51:00;11.03;;;10.83;;
2892;SDS011;1456;51.840;12.184;2023-04-03T18:53:26;9.50;;;9.40;;
2892;SDS011;1456;51.840;12.184;2023-04-03T18:55:52;12.43;;;11.37;;
2892;SDS011;1456;51.840;12.184;2023-04-03T18:58:17;9.60;;;9.50;;
2892;SDS011;1456;51.840;12.184;2023-04-03T19:00:43;9.40;;;9.30;;
2892;SDS011;1456;51.840;12.184;2023-04-03T19:03:10;10.83;;;10.63;;
2892;SDS011;1456;51.840;12.184;2023-04-03T19:05:37;12.57;;;11.60;;
2892;SDS011;1456;51.840;12.184;2023-04-03T19:08:03;11.07;;;10.87;;
2892;SDS011;1456;51.840;12.184;2023-04-03T19:10:29;10.03;;;9.93;;
2892;SDS011;1456;51.840;12.184;2023-04-03T19:12:56;11.17;;;10.97;;
2892;SDS011;1456;51.840;12.184;2023-04-03T19:15:22;10.80;;;10.60;;
2892;SDS011;1456;51.840;12.184;2023-04-03T19:17:49;11.93;;;11.73;;
2892;SDS011;1456;51.840;12.184;2023-04-03T19:20:15;11.03;;;10.77;;
2892;SDS011;1456;51.840;12.184;2023-04-03T19:22:41;9.20;;;9.10;;
2892;SDS011;1456;51.840;12.184;2023-04-03T19:25:07;9.50;;;9.40;;
2892;SDS011;1456;51.840;12.184;2023-04-03T19:27:34;11.57;;;11.37;;
2892;SDS011;1456;51.840;12.184;2023-04-03T19:30:00;10.40;;;10.20;;
2892;SDS011;1456;51.840;12.184;2023-04-03T19:32:26;10.20;;;10.00;;
2892;SDS011;1456;51.840;12.184;2023-04-03T19:34:52;10.80;;;10.60;;
2892;SDS011;1456;51.840;12.184;2023-04-03T19:37:18;11.20;;;11.00;;
2892;SDS011;1456;51.840;12.184;2023-04-03T19:39:44;10.63;;;10.43;;
2892;SDS011;1456;51.840;12.184;2023-04-03T19:42:10;12.00;;;11.80;;
2892;SDS011;1456;51.840;12.184;2023-04-03T19:44:37;10.20;;;10.10;;
2892;SDS011;1456;51.840;12.184;2023-04-03T19:47:03;12.40;;;11.87;;
2892;SDS011;1456;51.840;12.184;2023-04-03T19:49:29;11.03;;;10.83;;
2892;SDS011;1456;51.840;12.184;2023-04-03T19:51:55;9.43;;;9.33;;
2892;SDS011;1456;51.840;12.184;2023-04-03T19:54:21;9.90;;;9.80;;
2892;SDS011;1456;51.840;12.184;2023-04-03T19:56:47;10.37;;;10.23;;
2892;SDS011;1456;51.840;12.184;2023-04-03T19:59:13;9.30;;;9.20;;
2892;SDS011;1456;51.840;12.184;2023-04-03T20:01:40;8.57;;;8.47;;
2892;SDS011;1456;51.840;12.184;2023-04-03T20:04:06;8.83;;;8.73;;
2892;SDS011;1456;51.840;12.184;2023-04-03T20:06:32;8.13;;;8.03;;
2892;SDS011;1456;51.840;12.184;2023-04-03T20:08:57;9.33;;;9.23;;
2892;SDS011;1456;51.840;12.184;2023-04-03T20:11:23;8.57;;;8.40;;
2892;SDS011;1456;51.840;12.184;2023-04-03T20:13:50;8.70;;;8.60;;
2892;SDS011;1456;51.840;12.184;2023-04-03T20:16:16;8.40;;;8.30;;
2892;SDS011;1456;51.840;12.184;2023-04-03T20:18:43;9.10;;;8.90;;
2892;SDS011;1456;51.840;12.184;2023-04-03T20:21:10;8.90;;;8.70;;
2892;SDS011;1456;51.840;12.184;2023-04-03T20:23:36;7.80;;;7.70;;
2892;SDS011;1456;51.840;12.184;2023-04-03T20:26:03;7.73;;;7.63;;
2892;SDS011;1456;51.840;12.184;2023-04-03T20:28:32;8.20;;;8.10;;
2892;SDS011;1456;51.840;12.184;2023-04-03T20:30:59;8.67;;;8.57;;
2892;SDS011;1456;51.840;12.184;2023-04-03T20:33:26;9.80;;;9.10;;
2892;SDS011;1456;51.840;12.184;2023-04-03T20:35:52;8.30;;;8.20;;
2892;SDS011;1456;51.840;12.184;2023-04-03T20:38:22;7.53;;;7.43;;
2892;SDS011;1456;51.840;12.184;2023-04-03T20:40:48;8.20;;;8.10;;
2892;SDS011;1456;51.840;12.184;2023-04-03T20:43:16;9.13;;;8.83;;
2892;SDS011;1456;51.840;12.184;2023-04-03T20:45:42;7.47;;;7.37;;
2892;SDS011;1456;51.840;12.184;2023-04-03T20:48:07;8.07;;;7.97;;
2892;SDS011;1456;51.840;12.184;2023-04-03T20:50:35;6.67;;;6.67;;
2892;SDS011;1456;51.840;12.184;2023-04-03T20:53:01;7.37;;;7.27;;
2892;SDS011;1456;51.840;12.184;2023-04-03T20:55:27;7.10;;;7.00;;
2892;SDS011;1456;51.840;12.184;2023-04-03T20:57:53;7.53;;;7.43;;
2892;SDS011;1456;51.840;12.184;2023-04-03T21:00:24;7.20;;;7.10;;
2892;SDS011;1456;51.840;12.184;2023-04-03T21:02:51;7.97;;;7.87;;
2892;SDS011;1456;51.840;12.184;2023-04-03T21:05:16;7.40;;;7.30;;
2892;SDS011;1456;51.840;12.184;2023-04-03T21:19:22;6.30;;;6.30;;
2892;SDS011;1456;51.840;12.184;2023-04-03T21:21:47;5.90;;;5.90;;
2892;SDS011;1456;51.840;12.184;2023-04-03T21:24:15;5.90;;;5.90;;
2892;SDS011;1456;51.840;12.184;2023-04-03T21:26:42;5.87;;;5.87;;
2892;SDS011;1456;51.840;12.184;2023-04-03T21:29:10;7.33;;;7.23;;
2892;SDS011;1456;51.840;12.184;2023-04-03T21:31:46;5.90;;;5.90;;
2892;SDS011;1456;51.840;12.184;2023-04-03T21:34:15;6.40;;;6.40;;
2892;SDS011;1456;51.840;12.184;2023-04-03T21:36:41;6.10;;;6.10;;
2892;SDS011;1456;51.840;12.184;2023-04-03T21:39:07;6.60;;;6.50;;
2892;SDS011;1456;51.840;12.184;2023-04-03T21:41:34;5.93;;;5.83;;
2892;SDS011;1456;51.840;12.184;2023-04-03T21:44:00;5.87;;;5.87;;
2892;SDS011;1456;51.840;12.184;2023-04-03T21:46:26;6.20;;;6.10;;
2892;SDS011;1456;51.840;12.184;2023-04-03T21:48:52;5.60;;;5.60;;
2892;SDS011;1456;51.840;12.184;2023-04-03T21:51:19;5.80;;;5.80;;
2892;SDS011;1456;51.840;12.184;2023-04-03T22:54:43;3.63;;;3.63;;
2892;SDS011;1456;51.840;12.184;2023-04-03T22:57:09;3.67;;;3.67;;
2892;SDS011;1456;51.840;12.184;2023-04-03T22:59:35;3.30;;;3.30;;
2892;SDS011;1456;51.840;12.184;2023-04-03T23:02:01;2.93;;;2.93;;
2892;SDS011;1456;51.840;12.184;2023-04-03T23:04:27;3.23;;;3.20;;
2892;SDS011;1456;51.840;12.184;2023-04-03T23:06:53;2.70;;;2.70;;
2892;SDS011;1456;51.840;12.184;2023-04-03T23:09:19;2.87;;;2.83;;
2892;SDS011;1456;51.840;12.184;2023-04-03T23:11:45;2.40;;;2.40;;
2892;SDS011;1456;51.840;12.184;2023-04-03T23:14:11;2.50;;;2.50;;
2892;SDS011;1456;51.840;12.184;2023-04-03T23:16:36;2.17;;;2.17;;
2892;SDS011;1456;51.840;12.184;2023-04-03T23:19:02;1.90;;;1.90;;
2892;SDS011;1456;51.840;12.184;2023-04-03T23:21:28;2.00;;;2.00;;
2892;SDS011;1456;51.840;12.184;2023-04-03T23:23:53;1.90;;;1.90;;
2892;SDS011;1456;51.840;12.184;2023-04-03T23:26:19;1.30;;;1.30;;
2892;SDS011;1456;51.840;12.184;2023-04-03T23:28:45;1.50;;;1.50;;
2892;SDS011;1456;51.840;12.184;2023-04-03T23:31:10;1.30;;;1.30;;
2892;SDS011;1456;51.840;12.184;2023-04-03T23:33:36;1.07;;;1.07;;
2892;SDS011;1456;51.840;12.184;2023-04-03T23:36:06;1.00;;;1.00;;
2892;SDS011;1456;51.840;12.184;2023-04-03T23:38:33;0.90;;;0.90;;
2892;SDS011;1456;51.840;12.184;2023-04-03T23:40:59;0.90;;;0.90;;
2892;SDS011;1456;51.840;12.184;2023-04-03T23:43:25;1.23;;;1.23;;
2892;SDS011;1456;51.840;12.184;2023-04-03T23:45:52;0.90;;;0.90;;
2892;SDS011;1456;51.840;12.184;2023-04-03T23:48:18;0.80;;;0.80;;
2892;SDS011;1456;51.840;12.184;2023-04-03T23:50:44;0.90;;;0.90;;
2892;SDS011;1456;51.840;12.184;2023-04-03T23:53:10;0.80;;;0.80;;
2892;SDS011;1456;51.840;12.184;2023-04-03T23:55:38;0.80;;;0.80;;
2892;SDS011;1456;51.840;12.184;2023-04-03T23:58:06;0.70;;;0.70;;
